This is the latest recevied weather packets stored in our database for station/object SR5NLK-1. If no packets are shown the sender has not sent any weather packets the latest 10 day(s).
| Time | Temp. | Humidity | Pressure | Rain* | Wind** | Luminosity | Snow |
|---|---|---|---|---|---|---|---|
| 1788068177 | 25° C | 64% | 1040.6 hPa | 0 mm | - | - | - |
| 1788068138 | 25° C | 64% | 1040.6 hPa | 0 mm | - | - | - |
| 1788068092 | 25° C | 64% | 1040.6 hPa | 0 mm | - | - | - |
| 1788067792 | 24.44° C | 68% | 1061.2 hPa | 0 mm | - | - | - |
| 1788067623 | 23.89° C | 70% | 1072.1 hPa | 0 mm | - | - | - |
| 1788067560 | 23.89° C | 70% | 1072.1 hPa | 0 mm | - | - | - |
| 1788067492 | 23.89° C | 70% | 1072.1 hPa | 0 mm | - | - | - |
| 1788067311 | 23.33° C | 71% | 1022.4 hPa | 0 mm | - | - | - |
| 1788067192 | 23.33° C | 71% | 993.7 hPa | 0 mm | - | - | - |
| 1788066892 | 23.89° C | 75% | 1050.1 hPa | 0 mm | - | - | - |
| 1788066670 | 22.78° C | 81% | 1053.2 hPa | 0 mm | - | - | - |
| 1788066592 | 22.78° C | 81% | 1053.2 hPa | 0 mm | - | - | - |
| 1788066292 | 22.22° C | 88% | 1053.2 hPa | 0 mm | - | - | - |
| 1788065992 | 21.11° C | 92% | 1050.1 hPa | 0 mm | - | - | - |
| 1788065739 | 20.56° C | 93% | 1059.5 hPa | 0 mm | - | - | - |
| 1788065692 | 20.56° C | 93% | 1059.5 hPa | 0 mm | - | - | - |
| 1788065594 | 19.44° C | 94% | 1059.5 hPa | 0 mm | - | - | - |
| 1788065546 | 18.33° C | 94% | 1056.4 hPa | 0 mm | - | - | - |
| 1788065544 | 16.67° C | 94% | 1031.1 hPa | 0 mm | - | - | - |
| 1788065503 | 14.44° C | 92% | 1059.5 hPa | 0 mm | - | - | - |
| 1788065392 | 19.44° C | 94% | 1059.5 hPa | 0 mm | - | - | - |
| 1788065331 | 19.44° C | 94% | 1065.8 hPa | 0 mm | - | - | - |
| 1788065303 | 12.78° C | 90% | 1062.7 hPa | 0 mm | - | - | - |
| 1788065092 | 18.33° C | 94% | 1056.4 hPa | 0 mm | - | - | - |
| 1788065048 | 12.78° C | 90% | 1065.8 hPa | 0 mm | - | - | - |
* Rain latest hour (hover to see other rain measurements)
** Current wind speed in m/s (hover to see current wind gust speed)